Time;durP1;ratioP1;P1;durP2;ratioP2;P2;SDS_P1;SDS_P2;PMS_P1;PMS_P2;Temp;Humidity;BMP_temperature;BMP_pressure;BME280_temperature;BME280_humidity;BME280_pressure;Samples;Min_cycle;Max_cycle;Signal;HPM_P1;HPM_P2
2023/03/19 00:00:27;;;;;;;0.20;0.20;;;;;;;;;;5068080;28;20032;-70
2023/03/19 00:02:53;;;;;;;0.73;0.73;;;;;;;;;;5067718;28;20640;-71
2023/03/19 00:05:18;;;;;;;0.63;0.50;;;;;;;;;;5067536;28;20082;-70
2023/03/19 00:07:44;;;;;;;2.20;2.03;;;;;;;;;;5067514;28;20028;-69
2023/03/19 00:10:09;;;;;;;0.55;0.55;;;;;;;;;;5083554;28;20057;-70
2023/03/19 00:12:35;;;;;;;0.20;0.20;;;;;;;;;;5067275;28;20032;-70
2023/03/19 00:15:01;;;;;;;0.40;0.40;;;;;;;;;;5066082;28;20029;-70
2023/03/19 00:17:26;;;;;;;0.73;0.73;;;;;;;;;;5069583;28;20092;-69
2023/03/19 00:19:52;;;;;;;0.10;0.10;;;;;;;;;;5071754;28;20232;-69
2023/03/19 00:22:17;;;;;;;2.15;2.05;;;;;;;;;;5073222;28;20042;-70
2023/03/19 00:24:43;;;;;;;0.30;0.30;;;;;;;;;;5072111;28;20052;-72
2023/03/19 00:27:08;;;;;;;0.20;0.20;;;;;;;;;;5088731;28;20039;-69
2023/03/19 00:29:35;;;;;;;0.43;0.43;;;;;;;;;;5055539;28;20507;-69
2023/03/19 00:32:01;;;;;;;0.30;0.30;;;;;;;;;;5073094;28;20032;-69
2023/03/19 00:34:27;;;;;;;3.20;2.47;;;;;;;;;;5071960;28;20039;-69
2023/03/19 00:36:52;;;;;;;1.08;1.00;;;;;;;;;;5071923;28;20476;-70
2023/03/19 00:39:18;;;;;;;4.38;3.72;;;;;;;;;;5073184;28;20475;-70
2023/03/19 00:41:49;;;;;;;5.22;4.82;;;;;;;;;;5073022;28;20086;-70
2023/03/19 00:44:15;;;;;;;1.00;1.00;;;;;;;;;;5073043;28;20051;-71
2023/03/19 00:46:41;;;;;;;0.55;0.55;;;;;;;;;;5071979;28;20089;-69
2023/03/19 00:49:07;;;;;;;0.20;0.20;;;;;;;;;;5073158;28;20044;-69
2023/03/19 00:51:32;;;;;;;0.40;0.40;;;;;;;;;;5071882;28;20492;-69
2023/03/19 00:53:58;;;;;;;0.40;0.40;;;;;;;;;;5071750;28;20071;-70
2023/03/19 00:56:23;;;;;;;0.17;0.17;;;;;;;;;;5071716;28;20541;-72
2023/03/19 00:58:49;;;;;;;0.10;0.10;;;;;;;;;;5071592;28;20040;-71
2023/03/19 01:01:16;;;;;;;0.15;0.15;;;;;;;;;;5071705;28;20376;-70
2023/03/19 01:03:41;;;;;;;0.32;0.32;;;;;;;;;;5071517;28;20044;-70
2023/03/19 01:06:07;;;;;;;0.13;0.13;;;;;;;;;;5072800;28;20032;-70
2023/03/19 01:08:32;;;;;;;0.63;0.63;;;;;;;;;;5072897;28;20047;-70
2023/03/19 01:11:08;;;;;;;0.10;0.10;;;;;;;;;;5074203;28;20058;-70
2023/03/19 01:13:34;;;;;;;0.20;0.20;;;;;;;;;;5076020;28;20033;-69
2023/03/19 01:16:00;;;;;;;0.13;0.13;;;;;;;;;;5075798;28;20024;-70
2023/03/19 01:18:25;;;;;;;0.50;0.50;;;;;;;;;;5075540;28;20087;-70
2023/03/19 01:20:51;;;;;;;0.15;0.15;;;;;;;;;;5075423;28;20021;-70
2023/03/19 01:23:17;;;;;;;0.65;0.65;;;;;;;;;;5075488;28;20036;-70
2023/03/19 01:25:43;;;;;;;0.30;0.30;;;;;;;;;;5075142;28;20039;-71
2023/03/19 01:28:08;;;;;;;0.10;0.10;;;;;;;;;;5075189;28;20031;-69
2023/03/19 01:30:39;;;;;;;1.05;0.95;;;;;;;;;;5076507;28;20078;-69
2023/03/19 01:33:23;;;;;;;0.30;0.30;;;;;;;;;;5076751;28;20039;-69
2023/03/19 01:35:58;;;;;;;0.20;0.20;;;;;;;;;;5075175;28;20384;-70
2023/03/19 01:38:27;;;;;;;0.10;0.10;;;;;;;;;;5074939;28;20032;-69
2023/03/19 01:40:58;;;;;;;0.13;0.13;;;;;;;;;;5059256;28;20043;-69
2023/03/19 01:43:25;;;;;;;2.15;2.05;;;;;;;;;;5074833;28;20119;-69
2023/03/19 01:46:13;;;;;;;0.25;0.25;;;;;;;;;;5074951;28;20024;-69
2023/03/19 01:48:58;;;;;;;0.10;0.10;;;;;;;;;;5074645;28;20032;-69
2023/03/19 01:51:30;;;;;;;0.47;0.47;;;;;;;;;;5075319;28;20052;-69
2023/03/19 01:54:15;;;;;;;0.95;0.95;;;;;;;;;;5075051;28;20044;-69
2023/03/19 01:56:50;;;;;;;0.10;0.10;;;;;;;;;;5074981;28;20037;-71
2023/03/19 01:59:24;;;;;;;0.30;0.30;;;;;;;;;;5091585;28;20559;-70
2023/03/19 02:02:29;;;;;;;0.10;0.10;;;;;;;;;;5075329;28;20047;-70
2023/03/19 02:05:01;;;;;;;0.25;0.25;;;;;;;;;;5074633;28;20089;-70
2023/03/19 02:07:30;;;;;;;0.10;0.10;;;;;;;;;;5074520;28;20040;-70
2023/03/19 02:09:55;;;;;;;0.30;0.30;;;;;;;;;;5075726;28;20369;-70
2023/03/19 02:12:21;;;;;;;0.10;0.10;;;;;;;;;;5074561;28;20078;-70
2023/03/19 02:14:46;;;;;;;0.73;0.73;;;;;;;;;;5075834;28;20037;-70
2023/03/19 02:17:12;;;;;;;0.40;0.40;;;;;;;;;;5074407;28;20040;-70
2023/03/19 02:19:47;;;;;;;1.85;1.75;;;;;;;;;;5074483;28;20036;-70
2023/03/19 02:22:13;;;;;;;0.10;0.10;;;;;;;;;;5073425;28;20032;-71
2023/03/19 02:24:44;;;;;;;0.10;0.10;;;;;;;;;;5074286;28;20024;-70
2023/03/19 02:27:13;;;;;;;0.10;0.10;;;;;;;;;;5074230;28;20480;-71
2023/03/19 02:29:43;;;;;;;0.10;0.10;;;;;;;;;;5074280;28;20036;-70
2023/03/19 02:32:10;;;;;;;0.10;0.10;;;;;;;;;;5075229;28;20028;-70
2023/03/19 02:34:40;;;;;;;0.75;0.75;;;;;;;;;;5086748;28;20046;-70
2023/03/19 02:37:15;;;;;;;0.32;0.32;;;;;;;;;;5077298;28;20165;-70
2023/03/19 02:39:54;;;;;;;0.13;0.13;;;;;;;;;;5094355;28;20479;-70
2023/03/19 02:42:21;;;;;;;0.10;0.10;;;;;;;;;;5095475;28;20028;-69
2023/03/19 02:44:46;;;;;;;0.20;0.20;;;;;;;;;;5094145;28;20391;-70
2023/03/19 02:47:12;;;;;;;0.20;0.20;;;;;;;;;;5095263;28;20028;-71
2023/03/19 02:49:37;;;;;;;2.25;2.15;;;;;;;;;;5093887;28;20039;-69
2023/03/19 02:52:03;;;;;;;0.10;0.10;;;;;;;;;;5095401;28;20126;-70
2023/03/19 02:54:28;;;;;;;2.65;1.98;;;;;;;;;;5095458;28;20032;-70
2023/03/19 02:56:54;;;;;;;0.20;0.20;;;;;;;;;;5076919;28;20474;-70
2023/03/19 02:59:20;;;;;;;0.20;0.20;;;;;;;;;;5093946;28;20032;-70
2023/03/19 03:01:45;;;;;;;0.10;0.10;;;;;;;;;;5095012;28;20024;-70
2023/03/19 03:04:13;;;;;;;3.15;3.03;;;;;;;;;;5093558;28;20085;-70
2023/03/19 03:06:39;;;;;;;0.10;0.10;;;;;;;;;;5077313;28;20035;-70
2023/03/19 03:09:05;;;;;;;1.08;1.05;;;;;;;;;;5093595;28;20387;-69
2023/03/19 03:11:31;;;;;;;0.10;0.10;;;;;;;;;;5094793;28;20122;-70
2023/03/19 03:13:56;;;;;;;0.10;0.10;;;;;;;;;;5093525;28;20518;-69
2023/03/19 03:16:22;;;;;;;0.28;0.28;;;;;;;;;;5076511;28;20074;-69
2023/03/19 03:18:47;;;;;;;0.10;0.10;;;;;;;;;;5093320;28;20043;-71
2023/03/19 03:21:14;;;;;;;0.10;0.10;;;;;;;;;;5076425;28;20073;-71
2023/03/19 03:23:39;;;;;;;0.10;0.10;;;;;;;;;;5094922;28;20024;-70
2023/03/19 03:26:06;;;;;;;0.20;0.20;;;;;;;;;;5093338;28;20031;-70
2023/03/19 03:28:31;;;;;;;0.10;0.10;;;;;;;;;;5094869;28;20027;-70
2023/03/19 03:31:01;;;;;;;0.10;0.10;;;;;;;;;;5094444;28;20081;-69
2023/03/19 03:33:27;;;;;;;0.68;0.68;;;;;;;;;;5093326;28;20040;-69
2023/03/19 03:35:52;;;;;;;0.10;0.10;;;;;;;;;;5094457;28;20020;-71
2023/03/19 03:38:17;;;;;;;0.20;0.20;;;;;;;;;;5093139;28;20123;-70
2023/03/19 03:40:43;;;;;;;0.35;0.35;;;;;;;;;;5094342;28;20068;-70
2023/03/19 03:43:09;;;;;;;0.10;0.10;;;;;;;;;;5092986;28;20127;-69
2023/03/19 03:45:35;;;;;;;5.82;5.10;;;;;;;;;;5092875;28;20081;-69
2023/03/19 03:48:01;;;;;;;0.10;0.10;;;;;;;;;;5092655;28;20171;-69
2023/03/19 03:50:28;;;;;;;1.50;1.42;;;;;;;;;;5092672;28;20548;-69
2023/03/19 03:52:56;;;;;;;0.10;0.10;;;;;;;;;;5092865;28;20134;-71
2023/03/19 03:55:22;;;;;;;0.10;0.10;;;;;;;;;;5094490;28;20514;-71
2023/03/19 03:57:48;;;;;;;0.20;0.20;;;;;;;;;;5092787;28;20089;-70
2023/03/19 04:00:13;;;;;;;0.10;0.10;;;;;;;;;;5092614;28;20047;-70
2023/03/19 04:02:39;;;;;;;0.10;0.10;;;;;;;;;;5090479;28;20047;-71
2023/03/19 04:05:06;;;;;;;0.10;0.10;;;;;;;;;;5090263;28;20020;-70
2023/03/19 04:07:32;;;;;;;0.20;0.20;;;;;;;;;;5088291;28;20039;-70
2023/03/19 04:09:58;;;;;;;0.20;0.20;;;;;;;;;;5088505;28;20031;-69
2023/03/19 04:12:24;;;;;;;0.20;0.20;;;;;;;;;;5088561;28;20036;-70
2023/03/19 04:14:49;;;;;;;0.10;0.10;;;;;;;;;;5071510;28;20059;-70
2023/03/19 04:17:15;;;;;;;0.20;0.20;;;;;;;;;;5089360;28;20107;-70
2023/03/19 04:19:42;;;;;;;0.20;0.20;;;;;;;;;;5088387;28;20139;-70
2023/03/19 04:22:07;;;;;;;0.10;0.10;;;;;;;;;;5088785;28;20040;-68
2023/03/19 04:24:34;;;;;;;0.35;0.35;;;;;;;;;;5083296;28;20043;-70
2023/03/19 04:26:59;;;;;;;0.15;0.15;;;;;;;;;;5063621;28;20036;-69
2023/03/19 04:29:26;;;;;;;0.10;0.10;;;;;;;;;;5080801;28;20044;-69
2023/03/19 04:31:52;;;;;;;0.10;0.10;;;;;;;;;;5063458;28;20043;-69
2023/03/19 04:34:18;;;;;;;0.10;0.10;;;;;;;;;;5070089;28;20044;-70
2023/03/19 04:36:43;;;;;;;0.75;0.75;;;;;;;;;;5079818;28;20032;-69
2023/03/19 04:39:09;;;;;;;0.10;0.10;;;;;;;;;;5088183;28;20032;-70
2023/03/19 04:41:35;;;;;;;0.20;0.20;;;;;;;;;;5088012;28;20036;-71
2023/03/19 04:44:19;;;;;;;0.20;0.20;;;;;;;;;;5087628;28;20119;-74
2023/03/19 04:46:45;;;;;;;0.43;0.43;;;;;;;;;;5070933;28;20127;-70
2023/03/19 04:49:14;;;;;;;0.10;0.10;;;;;;;;;;5068139;28;20086;-70
2023/03/19 04:51:40;;;;;;;0.20;0.20;;;;;;;;;;5068052;28;20028;-69
2023/03/19 04:54:07;;;;;;;0.20;0.20;;;;;;;;;;5067798;28;20480;-73
2023/03/19 04:56:32;;;;;;;0.10;0.10;;;;;;;;;;5067690;28;20491;-70
2023/03/19 04:58:58;;;;;;;0.20;0.20;;;;;;;;;;5068955;28;20036;-70
2023/03/19 05:01:24;;;;;;;0.10;0.10;;;;;;;;;;5072058;28;20060;-75
2023/03/19 05:04:02;;;;;;;0.10;0.10;;;;;;;;;;5078249;28;20032;-70
2023/03/19 05:06:31;;;;;;;0.17;0.17;;;;;;;;;;5082911;28;20028;-69
2023/03/19 05:08:56;;;;;;;0.10;0.10;;;;;;;;;;5069569;28;20053;-70
2023/03/19 05:11:22;;;;;;;0.15;0.15;;;;;;;;;;5086366;28;20548;-70
2023/03/19 05:14:02;;;;;;;0.25;0.25;;;;;;;;;;5075182;28;20853;-69
2023/03/19 05:16:35;;;;;;;0.10;0.10;;;;;;;;;;5085435;28;20040;-70
2023/03/19 05:19:00;;;;;;;0.10;0.10;;;;;;;;;;5085560;28;20097;-70
2023/03/19 05:21:26;;;;;;;0.20;0.20;;;;;;;;;;5085387;28;20047;-70
2023/03/19 05:23:53;;;;;;;0.10;0.10;;;;;;;;;;5085978;28;20066;-71
2023/03/19 05:26:20;;;;;;;0.38;0.38;;;;;;;;;;5085363;28;20032;-70
2023/03/19 05:29:03;;;;;;;0.10;0.10;;;;;;;;;;5086987;28;20111;-70
2023/03/19 05:31:48;;;;;;;0.20;0.20;;;;;;;;;;5084455;28;20036;-70
2023/03/19 05:34:14;;;;;;;0.50;0.50;;;;;;;;;;5086271;28;20067;-70
2023/03/19 05:36:40;;;;;;;0.10;0.10;;;;;;;;;;5085145;28;20453;-71
2023/03/19 05:39:16;;;;;;;0.10;0.10;;;;;;;;;;5085644;28;20051;-70
2023/03/19 05:41:43;;;;;;;0.10;0.10;;;;;;;;;;5085261;28;20060;-71
2023/03/19 05:44:09;;;;;;;0.20;0.20;;;;;;;;;;5085599;28;20063;-70
2023/03/19 05:47:00;;;;;;;0.10;0.10;;;;;;;;;;5087764;28;20048;-70
2023/03/19 05:49:30;;;;;;;0.13;0.13;;;;;;;;;;5086861;28;20036;-69
2023/03/19 05:51:56;;;;;;;0.10;0.10;;;;;;;;;;5087031;28;20048;-69
2023/03/19 05:54:22;;;;;;;0.10;0.10;;;;;;;;;;5070977;28;20122;-69
2023/03/19 05:56:54;;;;;;;0.28;0.28;;;;;;;;;;5088438;28;20032;-71
2023/03/19 05:59:33;;;;;;;0.10;0.10;;;;;;;;;;5075290;28;20057;-72
2023/03/19 06:02:17;;;;;;;0.20;0.20;;;;;;;;;;5076814;28;20036;-70
2023/03/19 06:04:43;;;;;;;0.10;0.10;;;;;;;;;;5090981;28;20032;-71
2023/03/19 06:07:09;;;;;;;0.10;0.10;;;;;;;;;;5092509;28;20451;-70
2023/03/19 06:09:36;;;;;;;0.20;0.20;;;;;;;;;;5090451;28;20024;-72
2023/03/19 06:12:02;;;;;;;0.10;0.10;;;;;;;;;;5074187;28;20128;-70
2023/03/19 06:15:03;;;;;;;0.95;0.88;;;;;;;;;;5110257;28;20036;-73
2023/03/19 06:17:44;;;;;;;0.10;0.10;;;;;;;;;;5094020;28;20062;-70
2023/03/19 06:20:12;;;;;;;0.20;0.20;;;;;;;;;;5090650;28;20432;-70
2023/03/19 06:22:39;;;;;;;0.10;0.10;;;;;;;;;;5090561;28;20036;-70
2023/03/19 06:25:05;;;;;;;0.10;0.10;;;;;;;;;;5073707;28;20028;-70
2023/03/19 06:27:34;;;;;;;0.10;0.10;;;;;;;;;;5090414;28;20036;-70
2023/03/19 06:33:42;;;;;;;0.43;0.43;;;;;;;;;;5090068;28;20145;-71
2023/03/19 06:36:08;;;;;;;0.10;0.10;;;;;;;;;;5088335;28;20085;-72
2023/03/19 06:38:34;;;;;;;0.10;0.10;;;;;;;;;;5090430;28;20067;-70
2023/03/19 06:41:00;;;;;;;0.20;0.20;;;;;;;;;;5091618;28;20073;-70
2023/03/19 06:43:26;;;;;;;0.13;0.13;;;;;;;;;;5091309;28;20040;-70
2023/03/19 06:45:51;;;;;;;0.55;0.40;;;;;;;;;;5090099;28;20147;-71
2023/03/19 06:48:17;;;;;;;1.75;1.65;;;;;;;;;;5091519;28;20078;-75
2023/03/19 06:50:44;;;;;;;0.10;0.10;;;;;;;;;;5091506;28;20496;-71
2023/03/19 06:53:10;;;;;;;0.35;0.35;;;;;;;;;;5091241;28;20387;-70
2023/03/19 06:55:36;;;;;;;0.57;0.57;;;;;;;;;;5091010;28;20035;-70
2023/03/19 06:58:02;;;;;;;0.10;0.10;;;;;;;;;;5090075;28;20320;-71
2023/03/19 07:00:27;;;;;;;0.10;0.10;;;;;;;;;;5089898;28;20454;-70
2023/03/19 07:02:52;;;;;;;0.15;0.15;;;;;;;;;;5091336;28;20096;-70
2023/03/19 07:05:18;;;;;;;0.15;0.15;;;;;;;;;;5090600;28;20016;-71
2023/03/19 07:07:43;;;;;;;0.10;0.10;;;;;;;;;;5089418;28;20044;-71
2023/03/19 07:10:09;;;;;;;0.35;0.35;;;;;;;;;;5091086;28;20476;-71
2023/03/19 07:12:35;;;;;;;0.10;0.10;;;;;;;;;;5090841;28;20032;-71
2023/03/19 07:15:00;;;;;;;0.10;0.10;;;;;;;;;;5089247;28;20047;-71
2023/03/19 07:17:25;;;;;;;0.10;0.10;;;;;;;;;;5090768;28;20182;-75
2023/03/19 07:19:51;;;;;;;0.10;0.10;;;;;;;;;;5089693;28;20032;-70
2023/03/19 07:22:16;;;;;;;0.10;0.10;;;;;;;;;;5090231;28;20028;-70
2023/03/19 07:24:42;;;;;;;1.63;1.52;;;;;;;;;;5089783;28;20051;-71
2023/03/19 07:27:08;;;;;;;0.10;0.10;;;;;;;;;;5072468;28;20040;-70
2023/03/19 07:29:33;;;;;;;0.10;0.10;;;;;;;;;;5090098;28;20187;-71
2023/03/19 07:31:59;;;;;;;0.00;0.00;;;;;;;;;;5089457;28;20043;-70
2023/03/19 07:34:25;;;;;;;0.20;0.20;;;;;;;;;;5089199;28;20032;-70
2023/03/19 07:36:51;;;;;;;0.10;0.10;;;;;;;;;;5090649;28;20047;-69
2023/03/19 07:39:17;;;;;;;0.10;0.10;;;;;;;;;;5072127;28;20036;-69
2023/03/19 07:41:43;;;;;;;0.10;0.10;;;;;;;;;;5090344;28;20024;-69
2023/03/19 07:44:13;;;;;;;0.10;0.10;;;;;;;;;;5072301;28;20036;-71
2023/03/19 07:46:38;;;;;;;0.10;0.10;;;;;;;;;;5072252;28;20431;-70
2023/03/19 07:49:04;;;;;;;0.10;0.10;;;;;;;;;;5090341;28;20407;-70
2023/03/19 07:51:29;;;;;;;0.10;0.10;;;;;;;;;;5089914;28;20123;-69
2023/03/19 07:53:55;;;;;;;0.10;0.10;;;;;;;;;;5088811;28;20028;-70
2023/03/19 07:56:20;;;;;;;0.10;0.10;;;;;;;;;;5089755;28;20089;-72
2023/03/19 07:58:45;;;;;;;0.10;0.10;;;;;;;;;;5087271;28;20036;-72
2023/03/19 08:01:11;;;;;;;0.63;0.30;;;;;;;;;;5071538;28;20119;-71
2023/03/19 08:03:37;;;;;;;0.10;0.10;;;;;;;;;;5069755;28;20077;-70
2023/03/19 08:06:03;;;;;;;5.63;5.25;;;;;;;;;;5072239;28;20051;-76
2023/03/19 08:08:28;;;;;;;0.10;0.10;;;;;;;;;;5086755;28;20028;-75
2023/03/19 08:10:54;;;;;;;0.08;0.08;;;;;;;;;;5088057;28;20032;-70
2023/03/19 08:13:19;;;;;;;0.20;0.20;;;;;;;;;;5078652;28;20059;-71
2023/03/19 08:15:45;;;;;;;0.10;0.10;;;;;;;;;;5071141;28;20025;-70
2023/03/19 08:18:10;;;;;;;0.10;0.10;;;;;;;;;;5074794;28;20029;-70
2023/03/19 08:20:35;;;;;;;0.10;0.10;;;;;;;;;;5074474;28;20555;-71
2023/03/19 08:23:01;;;;;;;0.10;0.10;;;;;;;;;;5091490;28;20367;-72
2023/03/19 08:25:31;;;;;;;0.50;0.50;;;;;;;;;;5089454;28;20031;-70
2023/03/19 08:27:56;;;;;;;;;;;;;;;;;;5090165;28;20142;-70
2023/03/19 08:33:50;;;;;;;1.02;0.98;;;;;;;;;;5089225;28;20059;-70
2023/03/19 08:36:15;;;;;;;0.10;0.10;;;;;;;;;;5089586;28;20503;-70
2023/03/19 08:38:41;;;;;;;0.10;0.10;;;;;;;;;;5089358;28;20036;-71
2023/03/19 08:41:07;;;;;;;0.10;0.10;;;;;;;;;;5089381;28;20047;-74
2023/03/19 08:43:35;;;;;;;0.10;0.10;;;;;;;;;;5089521;28;20026;-75
2023/03/19 08:46:01;;;;;;;1.50;1.40;;;;;;;;;;5088214;28;20046;-70
2023/03/19 08:48:27;;;;;;;0.10;0.10;;;;;;;;;;5089378;28;20027;-70
2023/03/19 08:50:57;;;;;;;0.10;0.10;;;;;;;;;;5087786;28;20032;-71
2023/03/19 08:53:23;;;;;;;0.10;0.10;;;;;;;;;;5089027;28;20045;-72
2023/03/19 08:55:52;;;;;;;0.10;0.10;;;;;;;;;;5088204;28;20047;-73
2023/03/19 08:58:18;;;;;;;0.10;0.10;;;;;;;;;;5089309;28;20420;-69
2023/03/19 09:00:43;;;;;;;0.10;0.10;;;;;;;;;;5089491;28;20143;-70
2023/03/19 09:03:09;;;;;;;0.10;0.10;;;;;;;;;;5089489;28;20032;-70
2023/03/19 09:05:34;;;;;;;0.10;0.10;;;;;;;;;;5089036;28;20036;-71
2023/03/19 09:08:00;;;;;;;0.10;0.10;;;;;;;;;;5087607;28;20040;-72
2023/03/19 09:10:25;;;;;;;0.10;0.10;;;;;;;;;;5088375;28;20027;-71
2023/03/19 09:12:51;;;;;;;0.10;0.10;;;;;;;;;;5089124;28;20033;-69
2023/03/19 09:15:16;;;;;;;0.10;0.10;;;;;;;;;;5088878;28;20024;-70
2023/03/19 09:17:41;;;;;;;0.10;0.10;;;;;;;;;;5089051;28;20039;-70
2023/03/19 09:20:08;;;;;;;0.15;0.15;;;;;;;;;;5088225;28;20044;-70
2023/03/19 09:22:33;;;;;;;0.10;0.10;;;;;;;;;;5087594;28;20028;-70
2023/03/19 09:24:59;;;;;;;0.10;0.10;;;;;;;;;;5089166;28;20085;-73
2023/03/19 09:27:24;;;;;;;0.10;0.10;;;;;;;;;;5088980;28;20032;-69
2023/03/19 09:29:50;;;;;;;0.10;0.10;;;;;;;;;;5089032;28;20036;-68
2023/03/19 09:32:16;;;;;;;0.10;0.10;;;;;;;;;;5092203;28;20483;-69
2023/03/19 09:34:42;;;;;;;0.10;0.10;;;;;;;;;;5092933;28;20103;-70
2023/03/19 09:37:10;;;;;;;0.10;0.10;;;;;;;;;;5091141;28;20042;-69
2023/03/19 09:39:36;;;;;;;0.10;0.10;;;;;;;;;;5074417;28;20032;-69
2023/03/19 09:42:08;;;;;;;0.10;0.10;;;;;;;;;;5092444;28;20088;-70
2023/03/19 09:44:36;;;;;;;0.25;0.20;;;;;;;;;;5092357;28;20074;-69
2023/03/19 09:47:02;;;;;;;0.70;0.70;;;;;;;;;;5074464;28;20055;-69
2023/03/19 09:49:31;;;;;;;0.30;0.30;;;;;;;;;;5091124;28;20059;-69
2023/03/19 09:52:09;;;;;;;0.10;0.10;;;;;;;;;;5074164;28;20040;-71
2023/03/19 09:54:41;;;;;;;0.10;0.10;;;;;;;;;;5074604;28;20067;-70
2023/03/19 09:57:08;;;;;;;0.43;0.43;;;;;;;;;;5074307;28;20038;-70
2023/03/19 09:59:33;;;;;;;0.10;0.10;;;;;;;;;;5073841;28;20441;-71
2023/03/19 10:02:11;;;;;;;0.10;0.10;;;;;;;;;;5092212;28;20039;-70
2023/03/19 10:04:51;;;;;;;0.82;0.82;;;;;;;;;;5091109;28;20055;-70
2023/03/19 10:07:21;;;;;;;0.10;0.10;;;;;;;;;;5092141;28;20037;-70
2023/03/19 10:09:46;;;;;;;0.25;0.25;;;;;;;;;;5092251;28;20036;-70
2023/03/19 10:12:27;;;;;;;0.10;0.10;;;;;;;;;;5092016;28;20036;-71
2023/03/19 10:15:02;;;;;;;2.05;1.88;;;;;;;;;;5092231;28;20047;-70
2023/03/19 10:17:31;;;;;;;0.20;0.20;;;;;;;;;;5091591;28;20035;-69
2023/03/19 10:20:13;;;;;;;0.52;0.52;;;;;;;;;;5091774;28;20067;-70
2023/03/19 10:22:50;;;;;;;0.10;0.10;;;;;;;;;;5091822;28;20046;-70
2023/03/19 10:25:21;;;;;;;1.48;0.50;;;;;;;;;;5092191;28;20391;-69
2023/03/19 10:27:51;;;;;;;0.10;0.10;;;;;;;;;;5091890;28;20058;-71
2023/03/19 10:30:16;;;;;;;;;;;;;;;;;;5092025;28;20460;-71
2023/03/19 10:32:43;;;;;;;0.10;0.10;;;;;;;;;;5091880;28;20018;-71
2023/03/19 10:35:17;;;;;;;0.10;0.10;;;;;;;;;;5091753;28;20036;-69
2023/03/19 10:37:43;;;;;;;0.10;0.10;;;;;;;;;;5090375;28;20024;-70
2023/03/19 10:40:16;;;;;;;0.35;0.30;;;;;;;;;;5091418;28;20028;-69
2023/03/19 10:42:41;;;;;;;0.90;0.90;;;;;;;;;;5090949;28;20107;-71
2023/03/19 10:45:19;;;;;;;0.10;0.10;;;;;;;;;;5091581;28;20131;-75
2023/03/19 10:47:45;;;;;;;1.55;1.00;;;;;;;;;;5091357;28;20020;-74
2023/03/19 10:50:17;;;;;;;0.10;0.10;;;;;;;;;;5091626;28;20047;-70
2023/03/19 10:52:44;;;;;;;6.60;1.38;;;;;;;;;;5090030;28;20036;-69
2023/03/19 10:55:14;;;;;;;0.90;0.80;;;;;;;;;;5091305;28;20471;-70
2023/03/19 10:57:44;;;;;;;0.30;0.30;;;;;;;;;;5073141;28;20039;-70
2023/03/19 11:00:09;;;;;;;;;;;;;;;;;;5091703;28;20123;-69
2023/03/19 11:02:35;;;;;;;0.10;0.10;;;;;;;;;;5090876;28;20386;-70
2023/03/19 11:05:07;;;;;;;1.55;0.85;;;;;;;;;;5091145;28;20395;-71
2023/03/19 11:07:34;;;;;;;5.38;0.50;;;;;;;;;;5091487;28;20464;-70
2023/03/19 11:10:00;;;;;;;2.55;1.88;;;;;;;;;;5089946;28;20026;-70
2023/03/19 11:12:32;;;;;;;0.10;0.10;;;;;;;;;;5090952;28;20419;-75
2023/03/19 11:14:59;;;;;;;1.13;1.02;;;;;;;;;;5090026;28;20484;-69
2023/03/19 11:17:36;;;;;;;0.85;0.40;;;;;;;;;;5089180;28;20036;-70
2023/03/19 11:20:18;;;;;;;0.38;0.30;;;;;;;;;;5089389;28;20028;-71
2023/03/19 11:22:43;;;;;;;2.13;0.80;;;;;;;;;;5090846;28;20036;-70
2023/03/19 11:25:18;;;;;;;0.30;0.30;;;;;;;;;;5090526;28;20031;-70
2023/03/19 11:27:44;;;;;;;0.10;0.10;;;;;;;;;;5090991;28;20035;-70
2023/03/19 11:30:19;;;;;;;1.75;1.17;;;;;;;;;;5089411;28;20471;-70
2023/03/19 11:33:05;;;;;;;2.90;1.98;;;;;;;;;;5089339;28;20046;-73
2023/03/19 11:35:36;;;;;;;0.47;0.47;;;;;;;;;;5072056;28;20530;-70
2023/03/19 11:38:03;;;;;;;0.10;0.10;;;;;;;;;;5090802;28;20032;-70
2023/03/19 11:40:36;;;;;;;0.17;0.17;;;;;;;;;;5072117;28;20493;-71
2023/03/19 11:43:11;;;;;;;0.80;0.73;;;;;;;;;;5090506;28;20086;-69
2023/03/19 11:45:44;;;;;;;0.47;0.47;;;;;;;;;;5090343;28;20028;-70
2023/03/19 11:48:24;;;;;;;0.63;0.63;;;;;;;;;;5090439;28;20495;-69
2023/03/19 11:50:56;;;;;;;0.10;0.10;;;;;;;;;;5090518;28;20059;-70
2023/03/19 11:53:33;;;;;;;0.10;0.10;;;;;;;;;;5090145;28;20044;-71
2023/03/19 11:56:28;;;;;;;0.17;0.17;;;;;;;;;;5089629;28;20032;-70
2023/03/19 11:58:57;;;;;;;2.72;1.48;;;;;;;;;;5089621;28;20459;-70
2023/03/19 12:01:32;;;;;;;0.63;0.63;;;;;;;;;;5089789;28;20036;-71
2023/03/19 12:04:17;;;;;;;0.57;0.57;;;;;;;;;;5090114;28;20036;-71
2023/03/19 12:06:46;;;;;;;0.10;0.10;;;;;;;;;;5089822;28;20506;-70
2023/03/19 12:09:30;;;;;;;0.65;0.50;;;;;;;;;;5090072;28;20412;-71
2023/03/19 12:12:04;;;;;;;0.10;0.10;;;;;;;;;;5089536;28;20042;-70
2023/03/19 12:14:48;;;;;;;0.17;0.17;;;;;;;;;;5089653;28;20101;-70
2023/03/19 12:17:20;;;;;;;0.17;0.15;;;;;;;;;;5089916;28;20530;-70
2023/03/19 12:19:55;;;;;;;0.85;0.60;;;;;;;;;;5090348;28;20042;-69
2023/03/19 12:22:35;;;;;;;0.20;0.20;;;;;;;;;;5088317;28;20032;-68
2023/03/19 12:25:19;;;;;;;0.10;0.10;;;;;;;;;;5089502;28;20028;-68
2023/03/19 12:27:59;;;;;;;0.85;0.63;;;;;;;;;;5089693;28;20035;-69
2023/03/19 12:30:34;;;;;;;0.10;0.10;;;;;;;;;;5088442;28;20036;-69
2023/03/19 12:33:18;;;;;;;1.17;1.17;;;;;;;;;;5089181;28;20304;-69
2023/03/19 12:35:46;;;;;;;0.30;0.20;;;;;;;;;;5089922;28;20040;-69
2023/03/19 12:38:18;;;;;;;1.25;1.00;;;;;;;;;;5071609;28;20036;-69
2023/03/19 12:41:04;;;;;;;0.10;0.10;;;;;;;;;;5089861;28;20028;-69
2023/03/19 12:43:50;;;;;;;2.03;0.70;;;;;;;;;;5089101;28;20115;-68
2023/03/19 12:46:19;;;;;;;0.13;0.13;;;;;;;;;;5089152;28;20040;-71
2023/03/19 12:48:51;;;;;;;0.10;0.10;;;;;;;;;;5089248;28;20032;-70
2023/03/19 12:51:19;;;;;;;0.40;0.32;;;;;;;;;;5088011;28;20286;-70
2023/03/19 12:53:56;;;;;;;0.10;0.10;;;;;;;;;;5088174;28;20028;-70
2023/03/19 12:56:30;;;;;;;0.10;0.10;;;;;;;;;;5089300;28;20046;-71
2023/03/19 12:59:19;;;;;;;0.40;0.40;;;;;;;;;;5089292;28;20035;-70
2023/03/19 13:01:50;;;;;;;0.30;0.30;;;;;;;;;;5085275;28;20139;-72
2023/03/19 13:04:26;;;;;;;0.35;0.35;;;;;;;;;;5089125;28;20047;-70
2023/03/19 13:06:52;;;;;;;1.23;0.85;;;;;;;;;;5092420;28;20038;-71
2023/03/19 13:09:17;;;;;;;0.10;0.10;;;;;;;;;;5093083;28;20392;-73
2023/03/19 13:11:45;;;;;;;1.75;1.15;;;;;;;;;;5093643;28;20031;-76
2023/03/19 13:14:19;;;;;;;0.40;0.30;;;;;;;;;;5091854;28;20429;-71
2023/03/19 13:16:47;;;;;;;0.10;0.10;;;;;;;;;;5092062;28;20040;-73
2023/03/19 13:19:17;;;;;;;0.47;0.43;;;;;;;;;;5091783;28;20024;-72
2023/03/19 13:21:45;;;;;;;0.30;0.30;;;;;;;;;;5093052;28;20040;-71
2023/03/19 13:24:33;;;;;;;0.17;0.17;;;;;;;;;;5092853;28;20067;-72
2023/03/19 13:27:00;;;;;;;0.50;0.50;;;;;;;;;;5091797;28;20032;-71
2023/03/19 13:29:30;;;;;;;0.30;0.28;;;;;;;;;;5091316;28;20036;-71
2023/03/19 13:32:00;;;;;;;0.22;0.22;;;;;;;;;;5091988;28;20051;-70
2023/03/19 13:34:26;;;;;;;0.10;0.10;;;;;;;;;;5092898;28;20036;-71
2023/03/19 13:36:52;;;;;;;0.10;0.10;;;;;;;;;;5092682;28;20043;-73
2023/03/19 13:39:19;;;;;;;0.50;0.50;;;;;;;;;;5091543;28;20364;-70
2023/03/19 13:42:11;;;;;;;1.65;0.30;;;;;;;;;;5074298;28;20032;-70
2023/03/19 13:44:40;;;;;;;0.10;0.10;;;;;;;;;;5092024;28;20047;-70
2023/03/19 13:47:31;;;;;;;0.10;0.10;;;;;;;;;;5092979;28;20083;-70
2023/03/19 13:50:15;;;;;;;2.22;0.47;;;;;;;;;;5091267;28;20085;-71
2023/03/19 13:52:47;;;;;;;0.10;0.10;;;;;;;;;;5091357;28;20040;-70
2023/03/19 13:55:28;;;;;;;0.10;0.10;;;;;;;;;;5090987;28;20024;-75
2023/03/19 13:58:16;;;;;;;0.10;0.10;;;;;;;;;;5091154;28;20028;-70
2023/03/19 14:00:41;;;;;;;3.33;0.60;;;;;;;;;;5092491;28;20031;-70
2023/03/19 14:03:27;;;;;;;0.10;0.10;;;;;;;;;;5092421;28;20028;-75
2023/03/19 14:05:55;;;;;;;0.10;0.10;;;;;;;;;;5092177;28;20096;-73
2023/03/19 14:08:46;;;;;;;0.10;0.10;;;;;;;;;;5092252;28;20124;-70
2023/03/19 14:11:20;;;;;;;3.30;0.63;;;;;;;;;;5091624;28;20058;-71
2023/03/19 14:13:47;;;;;;;0.10;0.10;;;;;;;;;;5092420;28;20036;-74
2023/03/19 14:16:20;;;;;;;0.80;0.65;;;;;;;;;;5092360;28;20084;-70
2023/03/19 14:18:46;;;;;;;0.10;0.10;;;;;;;;;;5091530;28;20028;-71
2023/03/19 14:21:16;;;;;;;0.75;0.73;;;;;;;;;;5091683;28;20043;-75
2023/03/19 14:23:51;;;;;;;0.10;0.10;;;;;;;;;;5090763;28;20046;-71
2023/03/19 14:26:18;;;;;;;0.10;0.10;;;;;;;;;;5092082;28;20111;-70
2023/03/19 14:28:43;;;;;;;0.60;0.30;;;;;;;;;;5092258;28;20261;-70
2023/03/19 14:31:23;;;;;;;0.13;0.13;;;;;;;;;;5091850;28;20119;-71
2023/03/19 14:33:54;;;;;;;0.20;0.20;;;;;;;;;;5092203;28;20028;-71
2023/03/19 14:36:20;;;;;;;0.73;0.40;;;;;;;;;;5091875;28;20511;-69
2023/03/19 14:38:57;;;;;;;1.27;1.20;;;;;;;;;;5090772;28;20024;-70
2023/03/19 14:41:24;;;;;;;1.38;0.55;;;;;;;;;;5091897;28;20044;-69
2023/03/19 14:43:53;;;;;;;0.10;0.10;;;;;;;;;;5091708;28;20032;-70
2023/03/19 14:46:37;;;;;;;0.20;0.20;;;;;;;;;;5091525;28;20399;-70
2023/03/19 14:49:02;;;;;;;1.42;1.08;;;;;;;;;;5091371;28;20036;-69
2023/03/19 14:51:46;;;;;;;0.60;0.40;;;;;;;;;;5089786;28;20036;-74
2023/03/19 14:54:14;;;;;;;28.80;25.88;;;;;;;;;;5091594;28;20156;-69
2023/03/19 14:56:40;;;;;;;0.10;0.10;;;;;;;;;;5091518;28;20040;-72
2023/03/19 14:59:08;;;;;;;0.20;0.20;;;;;;;;;;5091243;28;20039;-70
2023/03/19 15:01:39;;;;;;;5.22;0.70;;;;;;;;;;5089862;28;20028;-68
2023/03/19 15:04:07;;;;;;;0.10;0.10;;;;;;;;;;5091087;28;20495;-70